createdAt,value
2023-05-21T00:00:17.208Z,4.60
2023-05-21T00:02:44.361Z,4.78
2023-05-21T00:05:14.468Z,4.90
2023-05-21T00:07:42.183Z,4.45
2023-05-21T00:10:10.168Z,4.50
2023-05-21T00:12:37.429Z,4.82
2023-05-21T00:15:05.089Z,4.85
2023-05-21T00:17:32.669Z,4.82
2023-05-21T00:20:00.296Z,4.40
2023-05-21T00:22:27.442Z,5.25
2023-05-21T00:24:54.537Z,5.43
2023-05-21T00:27:21.604Z,4.30
2023-05-21T00:29:48.675Z,5.15
2023-05-21T00:32:15.819Z,5.10
2023-05-21T00:34:42.880Z,5.00
2023-05-21T00:37:10.099Z,5.35
2023-05-21T00:39:37.172Z,6.03
2023-05-21T00:42:04.540Z,4.35
2023-05-21T00:44:34.409Z,5.20
2023-05-21T00:47:02.919Z,4.57
2023-05-21T00:49:31.554Z,4.53
2023-05-21T00:52:01.595Z,5.70
2023-05-21T00:54:29.012Z,4.50
2023-05-21T00:56:56.820Z,4.80
2023-05-21T00:59:24.585Z,4.72
2023-05-21T01:01:56.418Z,4.63
2023-05-21T01:04:26.370Z,5.50
2023-05-21T01:06:53.641Z,5.07
2023-05-21T01:09:21.305Z,4.60
2023-05-21T01:11:51.324Z,4.65
2023-05-21T01:14:19.822Z,5.88
2023-05-21T01:16:49.714Z,4.75
2023-05-21T01:19:22.979Z,4.78
2023-05-21T01:21:53.630Z,4.65
2023-05-21T01:24:20.717Z,4.47
2023-05-21T01:26:48.230Z,4.53
2023-05-21T01:29:15.433Z,4.28
2023-05-21T01:32:04.187Z,4.32
2023-05-21T01:34:48.236Z,4.43
2023-05-21T01:37:27.152Z,4.25
2023-05-21T01:40:08.979Z,4.00
2023-05-21T01:42:39.037Z,3.85
2023-05-21T01:45:08.083Z,4.60
2023-05-21T01:47:37.641Z,4.35
2023-05-21T01:50:06.944Z,4.20
2023-05-21T01:52:33.994Z,4.28
2023-05-21T01:55:01.075Z,4.32
2023-05-21T01:57:28.137Z,4.30
2023-05-21T01:59:57.788Z,4.15
2023-05-21T02:02:24.912Z,4.00
2023-05-21T02:04:52.008Z,4.18
2023-05-21T02:07:19.958Z,4.25
2023-05-21T02:09:47.010Z,4.32
2023-05-21T02:12:14.085Z,5.00
2023-05-21T02:14:41.720Z,4.57
2023-05-21T02:17:08.745Z,4.00
2023-05-21T02:19:35.911Z,4.45
2023-05-21T02:22:02.976Z,4.93
2023-05-21T02:24:30.022Z,4.85
2023-05-21T02:26:58.547Z,4.28
2023-05-21T02:29:25.665Z,4.05
2023-05-21T02:31:52.793Z,3.97
2023-05-21T02:34:20.842Z,3.47
2023-05-21T02:36:48.586Z,4.07
2023-05-21T02:39:15.719Z,4.30
2023-05-21T02:41:42.741Z,4.05
2023-05-21T02:44:09.893Z,3.70
2023-05-21T02:46:36.882Z,4.53
2023-05-21T02:49:03.929Z,3.95
2023-05-21T02:51:31.579Z,4.13
2023-05-21T02:53:58.619Z,4.15
2023-05-21T02:56:26.235Z,4.38
2023-05-21T02:58:53.516Z,4.93
2023-05-21T03:01:20.671Z,4.28
2023-05-21T03:03:47.783Z,4.50
2023-05-21T03:06:16.428Z,4.25
2023-05-21T03:08:43.516Z,4.13
2023-05-21T03:11:10.693Z,4.22
2023-05-21T03:13:37.741Z,4.32
2023-05-21T03:16:05.582Z,5.30
2023-05-21T03:18:32.636Z,4.20
2023-05-21T03:20:59.746Z,4.95
2023-05-21T03:23:27.095Z,4.70
2023-05-21T03:25:54.234Z,4.45
2023-05-21T03:28:21.317Z,4.80
2023-05-21T03:30:51.074Z,4.88
2023-05-21T03:33:18.565Z,5.55
2023-05-21T03:35:45.687Z,4.97
2023-05-21T03:38:12.759Z,5.40
2023-05-21T03:40:39.835Z,4.00
2023-05-21T03:43:07.006Z,5.15
2023-05-21T03:45:34.540Z,4.78
2023-05-21T03:48:02.184Z,4.47
2023-05-21T03:50:29.265Z,4.45
2023-05-21T03:52:56.364Z,4.68
2023-05-21T03:55:23.401Z,4.40
2023-05-21T03:57:50.465Z,4.88
2023-05-21T04:00:17.940Z,4.90
2023-05-21T04:02:45.088Z,4.30
2023-05-21T04:05:12.206Z,4.45
2023-05-21T04:07:39.814Z,3.92
2023-05-21T04:10:07.567Z,4.15
2023-05-21T04:12:34.694Z,3.90
2023-05-21T04:15:02.715Z,3.88
2023-05-21T04:17:29.839Z,3.95
2023-05-21T04:19:56.938Z,4.10
2023-05-21T04:22:26.570Z,4.07
2023-05-21T04:24:54.698Z,4.00
2023-05-21T04:27:24.892Z,3.83
2023-05-21T04:29:51.996Z,4.00
2023-05-21T04:32:19.067Z,3.67
2023-05-21T04:34:46.232Z,3.42
2023-05-21T04:37:13.857Z,3.92
2023-05-21T04:39:42.483Z,4.10
2023-05-21T04:42:11.154Z,3.70
2023-05-21T04:44:40.461Z,3.65
2023-05-21T04:47:08.019Z,4.05
2023-05-21T04:49:35.283Z,4.25
2023-05-21T04:52:02.766Z,3.92
2023-05-21T04:54:29.967Z,4.20
2023-05-21T04:56:58.165Z,4.72
2023-05-21T04:59:25.229Z,4.35
2023-05-21T05:01:52.782Z,3.85
2023-05-21T05:04:19.851Z,4.05
2023-05-21T05:06:47.355Z,3.90
2023-05-21T05:09:14.440Z,4.72
2023-05-21T05:11:41.502Z,3.35
2023-05-21T05:14:08.588Z,3.85
2023-05-21T05:16:36.434Z,3.10
2023-05-21T05:19:03.596Z,3.58
2023-05-21T05:21:30.754Z,3.40
2023-05-21T05:23:57.928Z,3.17
2023-05-21T05:26:26.269Z,2.92
2023-05-21T05:28:53.396Z,3.17
2023-05-21T05:31:20.545Z,3.17
2023-05-21T05:33:48.571Z,2.33
2023-05-21T05:36:15.810Z,2.78
2023-05-21T05:38:42.910Z,2.70
2023-05-21T05:41:09.974Z,2.22
2023-05-21T05:43:37.325Z,2.55
2023-05-21T05:46:04.553Z,3.53
2023-05-21T05:48:31.774Z,2.25
2023-05-21T05:50:58.908Z,2.58
2023-05-21T05:53:25.952Z,2.42
2023-05-21T05:55:53.024Z,2.78
2023-05-21T05:58:20.224Z,2.72
2023-05-21T06:00:47.302Z,2.20
2023-05-21T06:03:14.588Z,2.53
2023-05-21T06:05:42.032Z,3.17
2023-05-21T06:08:09.167Z,2.72
2023-05-21T06:10:36.253Z,2.70
2023-05-21T06:13:03.364Z,2.33
2023-05-21T06:15:30.852Z,2.90
2023-05-21T06:17:57.907Z,2.80
2023-05-21T06:20:25.007Z,2.65
2023-05-21T06:22:52.046Z,2.75
2023-05-21T06:25:19.187Z,3.20
2023-05-21T06:27:46.531Z,2.55
2023-05-21T06:30:13.607Z,2.88
2023-05-21T06:32:40.829Z,2.90
2023-05-21T06:35:08.602Z,3.45
2023-05-21T06:37:35.688Z,2.70
2023-05-21T06:40:03.019Z,2.88
2023-05-21T06:42:30.096Z,3.00
2023-05-21T06:44:57.145Z,2.55
2023-05-21T06:47:24.261Z,2.33
2023-05-21T06:49:51.338Z,2.22
2023-05-21T06:52:18.456Z,2.42
2023-05-21T06:54:45.850Z,2.50
2023-05-21T06:57:15.267Z,2.55
2023-05-21T06:59:42.532Z,2.35
2023-05-21T07:02:09.647Z,2.80
2023-05-21T07:04:36.894Z,2.65
2023-05-21T07:07:04.808Z,2.40
2023-05-21T07:09:32.218Z,2.97
2023-05-21T07:11:59.368Z,3.22
2023-05-21T07:14:26.752Z,3.30
2023-05-21T07:16:53.886Z,2.97
2023-05-21T07:19:21.350Z,3.00
2023-05-21T07:21:49.456Z,2.58
2023-05-21T07:24:16.572Z,2.72
2023-05-21T07:26:43.631Z,2.40
2023-05-21T07:29:10.846Z,2.38
2023-05-21T07:31:38.109Z,2.35
2023-05-21T07:34:05.336Z,2.33
2023-05-21T07:36:33.641Z,2.08
2023-05-21T07:39:01.052Z,2.13
2023-05-21T07:41:28.217Z,2.30
2023-05-21T07:43:55.612Z,2.40
2023-05-21T07:46:22.752Z,3.08
2023-05-21T07:48:50.198Z,2.25
2023-05-21T07:51:17.498Z,1.90
2023-05-21T07:53:44.611Z,2.45
2023-05-21T07:56:11.724Z,2.78
2023-05-21T07:58:39.621Z,3.03
2023-05-21T08:01:07.015Z,2.40
2023-05-21T08:03:34.206Z,2.65
2023-05-21T08:06:01.846Z,2.72
2023-05-21T08:08:28.997Z,2.42
2023-05-21T08:10:56.342Z,2.45
2023-05-21T08:13:23.359Z,2.53
2023-05-21T08:15:52.836Z,2.53
2023-05-21T08:18:20.695Z,2.72
2023-05-21T08:20:48.536Z,2.25
2023-05-21T08:23:15.682Z,2.40
2023-05-21T08:25:42.870Z,2.10
2023-05-21T08:28:09.973Z,2.13
2023-05-21T08:30:37.363Z,2.15
2023-05-21T08:33:04.545Z,2.35
2023-05-21T08:35:31.787Z,2.35
2023-05-21T08:37:59.587Z,1.90
2023-05-21T08:40:26.723Z,1.80
2023-05-21T08:42:54.066Z,2.15
2023-05-21T08:45:22.976Z,2.42
2023-05-21T08:47:59.797Z,2.33
2023-05-21T08:50:28.692Z,2.17
2023-05-21T08:52:56.062Z,2.08
2023-05-21T08:55:23.890Z,1.83
2023-05-21T08:57:53.744Z,2.00
2023-05-21T09:00:21.360Z,2.22
2023-05-21T09:02:48.466Z,2.58
2023-05-21T09:05:16.583Z,2.10
2023-05-21T09:07:55.425Z,1.88
2023-05-21T09:10:29.561Z,1.73
2023-05-21T09:12:56.685Z,1.80
2023-05-21T09:15:24.430Z,1.83
2023-05-21T09:17:51.571Z,2.10
2023-05-21T09:20:24.198Z,2.17
2023-05-21T09:22:51.654Z,2.38
2023-05-21T09:25:24.098Z,2.33
2023-05-21T09:27:51.453Z,2.20
2023-05-21T09:30:21.849Z,2.45
2023-05-21T09:32:59.980Z,2.28
2023-05-21T09:35:27.747Z,1.92
2023-05-21T09:37:57.510Z,2.03
2023-05-21T09:40:25.212Z,1.70
2023-05-21T09:42:54.921Z,1.90
2023-05-21T09:45:28.711Z,1.80
2023-05-21T09:47:56.560Z,3.00
2023-05-21T09:50:31.581Z,2.03
2023-05-21T09:52:58.665Z,2.03
2023-05-21T09:55:27.087Z,1.92
2023-05-21T09:57:54.290Z,1.95
2023-05-21T10:00:27.633Z,1.70
2023-05-21T10:02:56.953Z,1.90
2023-05-21T10:05:31.219Z,2.20
2023-05-21T10:08:03.293Z,2.33
2023-05-21T10:10:32.271Z,2.10
2023-05-21T10:13:08.764Z,2.45
2023-05-21T10:15:42.472Z,1.83
2023-05-21T10:18:12.489Z,1.77
2023-05-21T10:20:40.728Z,2.10
2023-05-21T10:23:09.026Z,1.75
2023-05-21T10:25:37.081Z,2.00
2023-05-21T10:28:04.826Z,1.83
2023-05-21T10:30:32.297Z,1.75
2023-05-21T10:33:01.909Z,2.10
2023-05-21T10:35:29.844Z,2.25
2023-05-21T10:37:59.134Z,1.98
2023-05-21T10:40:26.297Z,2.17
2023-05-21T10:43:31.261Z,1.88
2023-05-21T10:46:32.203Z,1.83
2023-05-21T10:49:11.209Z,2.03
2023-05-21T10:52:00.403Z,2.38
2023-05-21T10:55:12.045Z,2.63
2023-05-21T10:57:57.172Z,1.92
2023-05-21T11:00:26.619Z,1.98
2023-05-21T11:02:54.432Z,1.92
2023-05-21T11:05:51.692Z,2.08
2023-05-21T11:08:35.837Z,1.48
2023-05-21T11:11:04.749Z,2.20
2023-05-21T11:13:51.991Z,1.98
2023-05-21T11:16:21.772Z,2.10
2023-05-21T11:18:57.702Z,1.95
2023-05-21T11:21:28.564Z,2.25
2023-05-21T11:24:06.665Z,2.20
2023-05-21T11:26:49.038Z,2.10
2023-05-21T11:29:17.234Z,2.50
2023-05-21T11:31:58.890Z,2.58
2023-05-21T11:34:28.932Z,1.88
2023-05-21T11:37:23.327Z,2.33
2023-05-21T11:39:51.785Z,2.42
2023-05-21T11:42:35.157Z,2.22
2023-05-21T11:45:04.208Z,2.30
2023-05-21T11:47:32.675Z,2.63
2023-05-21T11:50:02.795Z,2.35
2023-05-21T11:52:31.875Z,1.92
2023-05-21T11:55:00.058Z,2.40
2023-05-21T11:57:32.252Z,2.35
2023-05-21T12:00:01.857Z,2.10
2023-05-21T12:02:33.148Z,2.20
2023-05-21T12:05:00.716Z,2.13
2023-05-21T12:07:32.001Z,2.33
2023-05-21T12:10:00.339Z,2.08
2023-05-21T12:12:33.057Z,1.98
2023-05-21T12:15:10.414Z,2.30
2023-05-21T12:17:37.715Z,2.10
2023-05-21T12:20:08.475Z,2.40
2023-05-21T12:22:35.563Z,2.20
2023-05-21T12:25:04.122Z,2.05
2023-05-21T12:27:32.899Z,2.13
2023-05-21T12:30:01.219Z,2.10
2023-05-21T12:32:29.327Z,1.80
2023-05-21T12:34:56.745Z,2.03
2023-05-21T12:37:26.774Z,2.00
2023-05-21T12:39:56.129Z,2.00
2023-05-21T12:42:32.481Z,1.85
2023-05-21T12:44:59.663Z,1.70
2023-05-21T12:47:28.145Z,1.85
2023-05-21T12:50:00.747Z,1.70
2023-05-21T12:52:29.180Z,1.92
2023-05-21T12:54:57.725Z,2.03
2023-05-21T12:57:43.975Z,2.15
2023-05-21T13:00:11.938Z,1.88
2023-05-21T13:02:45.471Z,1.58
2023-05-21T13:05:17.807Z,2.08
2023-05-21T13:07:47.645Z,2.67
2023-05-21T13:10:18.954Z,2.30
2023-05-21T13:12:46.497Z,2.15
2023-05-21T13:15:15.205Z,2.05
2023-05-21T13:17:42.344Z,2.00
2023-05-21T13:20:21.817Z,2.03
2023-05-21T13:22:52.187Z,2.22
2023-05-21T13:25:25.347Z,1.70
2023-05-21T13:27:53.749Z,1.55
2023-05-21T13:30:22.128Z,2.00
2023-05-21T13:32:49.303Z,2.17
2023-05-21T13:35:17.298Z,1.65
2023-05-21T13:37:45.134Z,2.05
2023-05-21T13:40:15.822Z,2.15
2023-05-21T13:42:45.931Z,1.88
2023-05-21T13:45:16.041Z,1.52
2023-05-21T13:47:44.433Z,2.58
2023-05-21T13:50:12.379Z,1.83
2023-05-21T13:52:39.509Z,1.90
2023-05-21T13:55:07.129Z,1.30
2023-05-21T13:57:34.288Z,1.90
2023-05-21T14:00:01.610Z,1.85
2023-05-21T14:02:29.305Z,2.30
2023-05-21T14:04:56.529Z,2.25
2023-05-21T14:07:23.602Z,2.05
2023-05-21T14:09:50.636Z,1.65
2023-05-21T14:12:17.767Z,2.03
2023-05-21T14:14:45.069Z,1.67
2023-05-21T14:17:12.153Z,2.03
2023-05-21T14:19:39.118Z,2.00
2023-05-21T14:22:06.182Z,1.92
2023-05-21T14:24:33.299Z,1.70
2023-05-21T14:27:00.554Z,1.88
2023-05-21T14:29:27.655Z,2.10
2023-05-21T14:31:54.754Z,2.83
2023-05-21T14:34:21.860Z,1.88
2023-05-21T14:36:48.875Z,1.77
2023-05-21T14:39:16.115Z,1.98
2023-05-21T14:41:43.248Z,1.90
2023-05-21T14:44:10.498Z,2.00
2023-05-21T14:46:38.614Z,1.80
2023-05-21T14:49:05.645Z,1.70
2023-05-21T14:51:32.675Z,1.55
2023-05-21T14:53:59.735Z,1.98
2023-05-21T14:56:28.212Z,1.90
2023-05-21T14:58:55.689Z,1.90
2023-05-21T15:01:23.185Z,1.80
2023-05-21T15:03:50.555Z,2.00
2023-05-21T15:06:17.850Z,2.08
2023-05-21T15:08:44.915Z,1.90
2023-05-21T15:11:11.994Z,1.92
2023-05-21T15:13:39.674Z,2.28
2023-05-21T15:16:06.839Z,2.00
2023-05-21T15:18:34.086Z,1.85
2023-05-21T15:21:01.292Z,2.35
2023-05-21T15:23:28.529Z,2.10
2023-05-21T15:25:56.041Z,2.40
2023-05-21T15:28:23.186Z,2.47
2023-05-21T15:30:50.461Z,2.33
2023-05-21T15:33:17.740Z,2.08
2023-05-21T15:35:45.226Z,2.05
2023-05-21T15:38:12.537Z,2.28
2023-05-21T15:40:43.152Z,2.10
2023-05-21T15:43:10.264Z,1.75
2023-05-21T15:45:38.537Z,1.90
2023-05-21T15:48:06.719Z,1.65
2023-05-21T15:50:35.712Z,2.08
2023-05-21T15:53:04.843Z,1.75
2023-05-21T15:55:35.392Z,2.33
2023-05-21T15:58:03.969Z,2.10
2023-05-21T16:00:31.058Z,2.10
2023-05-21T16:02:58.216Z,1.80
2023-05-21T16:05:26.783Z,1.80
2023-05-21T16:07:53.800Z,1.90
2023-05-21T16:10:22.817Z,2.10
2023-05-21T16:12:49.856Z,2.22
2023-05-21T16:15:17.054Z,2.40
2023-05-21T16:17:44.135Z,1.95
2023-05-21T16:20:12.096Z,1.90
2023-05-21T16:22:40.266Z,2.33
2023-05-21T16:25:08.381Z,2.50
2023-05-21T16:27:36.334Z,2.50
2023-05-21T16:30:04.310Z,1.70
2023-05-21T16:32:31.511Z,1.60
2023-05-21T16:34:59.062Z,1.95
2023-05-21T16:37:26.954Z,2.03
2023-05-21T16:39:53.995Z,1.95
2023-05-21T16:42:21.070Z,2.40
2023-05-21T16:44:48.093Z,2.15
2023-05-21T16:47:15.277Z,1.88
2023-05-21T16:49:42.354Z,2.03
2023-05-21T16:52:09.482Z,1.98
2023-05-21T16:54:36.485Z,2.08
2023-05-21T16:57:03.583Z,2.10
2023-05-21T16:59:30.594Z,2.30
2023-05-21T17:01:57.713Z,2.25
2023-05-21T17:04:24.835Z,2.25
2023-05-21T17:06:51.911Z,1.95
2023-05-21T17:09:18.998Z,2.20
2023-05-21T17:11:46.100Z,1.80
2023-05-21T17:14:15.386Z,2.40
2023-05-21T17:16:50.739Z,2.20
2023-05-21T17:19:17.862Z,2.25
2023-05-21T17:21:46.140Z,2.10
2023-05-21T17:24:13.233Z,1.90
2023-05-21T17:26:40.404Z,2.42
2023-05-21T17:29:07.513Z,1.70
2023-05-21T17:31:34.666Z,2.35
2023-05-21T17:34:01.763Z,2.13
2023-05-21T17:36:28.874Z,2.25
2023-05-21T17:38:55.954Z,2.10
2023-05-21T17:41:25.354Z,1.73
2023-05-21T17:43:52.425Z,2.83
2023-05-21T17:46:19.533Z,2.05
2023-05-21T17:48:46.614Z,2.80
2023-05-21T17:51:13.855Z,2.20
2023-05-21T17:53:41.313Z,2.60
2023-05-21T17:56:10.444Z,2.53
2023-05-21T17:58:37.605Z,2.15
2023-05-21T18:01:04.800Z,2.78
2023-05-21T18:03:32.131Z,2.30
2023-05-21T18:05:59.283Z,2.53
2023-05-21T18:08:27.015Z,2.45
2023-05-21T18:10:54.099Z,2.38
2023-05-21T18:13:21.179Z,1.85
2023-05-21T18:15:48.360Z,1.90
2023-05-21T18:18:20.631Z,2.17
2023-05-21T18:20:48.002Z,2.50
2023-05-21T18:23:15.130Z,2.70
2023-05-21T18:25:42.241Z,3.03
2023-05-21T18:28:10.154Z,2.70
2023-05-21T18:30:37.383Z,2.13
2023-05-21T18:33:04.756Z,2.35
2023-05-21T18:35:31.867Z,2.50
2023-05-21T18:37:58.939Z,3.00
2023-05-21T18:40:30.429Z,2.72
2023-05-21T18:42:57.771Z,2.80
2023-05-21T18:45:24.839Z,2.90
2023-05-21T18:47:52.210Z,2.72
2023-05-21T18:50:19.567Z,2.40
2023-05-21T18:52:46.952Z,2.75
2023-05-21T18:55:14.823Z,2.70
2023-05-21T18:57:41.963Z,2.67
2023-05-21T19:00:09.880Z,3.38
2023-05-21T19:02:37.422Z,3.20
2023-05-21T19:05:05.100Z,2.88
2023-05-21T19:07:32.246Z,3.88
2023-05-21T19:10:03.109Z,3.60
2023-05-21T19:12:31.502Z,3.22
2023-05-21T19:14:58.708Z,3.13
2023-05-21T19:17:25.924Z,3.10
2023-05-21T19:19:56.192Z,3.42
2023-05-21T19:22:27.667Z,3.38
2023-05-21T19:24:54.956Z,3.22
2023-05-21T19:27:22.471Z,3.63
2023-05-21T19:29:49.745Z,3.60
2023-05-21T19:32:17.109Z,3.03
2023-05-21T19:34:44.262Z,3.53
2023-05-21T19:37:11.507Z,4.25
2023-05-21T19:39:43.508Z,4.07
2023-05-21T19:42:11.058Z,3.70
2023-05-21T19:44:40.931Z,4.28
2023-05-21T19:47:08.523Z,4.20
2023-05-21T19:49:35.695Z,4.57
2023-05-21T19:52:02.828Z,4.50
2023-05-21T19:54:29.980Z,4.07
2023-05-21T19:56:57.751Z,4.50
2023-05-21T19:59:24.842Z,3.95
2023-05-21T20:01:51.893Z,4.75
2023-05-21T20:04:18.958Z,4.30
2023-05-21T20:06:46.130Z,4.28
2023-05-21T20:09:13.835Z,4.70
2023-05-21T20:11:42.334Z,4.95
2023-05-21T20:14:09.749Z,4.45
2023-05-21T20:16:37.018Z,3.38
2023-05-21T20:19:04.257Z,4.85
2023-05-21T20:21:31.927Z,5.07
2023-05-21T20:23:59.152Z,6.13
2023-05-21T20:26:26.434Z,5.20
2023-05-21T20:28:54.040Z,6.15
2023-05-21T20:31:21.767Z,5.95
2023-05-21T20:33:50.767Z,5.95
2023-05-21T20:36:18.562Z,5.20
2023-05-21T20:38:45.703Z,5.85
2023-05-21T20:41:13.516Z,5.47
2023-05-21T20:43:40.741Z,5.50
2023-05-21T20:46:07.969Z,5.82
2023-05-21T20:48:35.540Z,5.82
2023-05-21T20:51:04.717Z,5.72
2023-05-21T20:53:32.169Z,5.35
2023-05-21T20:56:01.732Z,5.15
2023-05-21T20:58:28.939Z,4.72
2023-05-21T21:00:56.024Z,5.30
2023-05-21T21:03:23.310Z,4.43
2023-05-21T21:05:50.737Z,4.65
2023-05-21T21:08:17.812Z,5.22
2023-05-21T21:10:47.055Z,4.70
2023-05-21T21:13:14.885Z,4.63
2023-05-21T21:15:43.770Z,4.93
2023-05-21T21:18:12.684Z,4.70
2023-05-21T21:20:41.496Z,5.15
2023-05-21T21:23:08.961Z,4.90
2023-05-21T21:25:36.537Z,5.10
2023-05-21T21:28:03.774Z,4.32
2023-05-21T21:30:31.236Z,5.43
2023-05-21T21:32:58.592Z,5.18
2023-05-21T21:35:25.687Z,5.40
2023-05-21T21:37:52.780Z,5.38
2023-05-21T21:40:19.881Z,5.57
2023-05-21T21:42:47.052Z,5.80
2023-05-21T21:45:14.086Z,5.72
2023-05-21T21:47:41.274Z,5.72
2023-05-21T21:50:08.991Z,5.97
2023-05-21T21:52:40.086Z,5.55
2023-05-21T21:55:11.221Z,5.95
2023-05-21T21:57:39.681Z,5.22
2023-05-21T22:00:11.319Z,5.65
2023-05-21T22:02:40.256Z,6.40
2023-05-21T22:05:08.815Z,6.85
2023-05-21T22:07:38.759Z,6.68
2023-05-21T22:10:06.777Z,6.05
2023-05-21T22:12:34.185Z,6.13
2023-05-21T22:15:05.462Z,6.47
2023-05-21T22:17:33.111Z,6.95
2023-05-21T22:20:01.267Z,6.15
2023-05-21T22:22:28.427Z,5.90
2023-05-21T22:24:55.833Z,5.13
2023-05-21T22:27:22.905Z,5.93
2023-05-21T22:29:50.037Z,6.15
2023-05-21T22:32:17.307Z,6.03
2023-05-21T22:34:44.456Z,4.93
2023-05-21T22:37:12.368Z,6.05
2023-05-21T22:39:39.514Z,5.18
2023-05-21T22:42:06.852Z,5.32
2023-05-21T22:44:33.941Z,5.35
2023-05-21T22:47:01.446Z,5.32
2023-05-21T22:49:30.326Z,4.60
2023-05-21T22:51:58.244Z,5.60
2023-05-21T22:54:25.331Z,5.93
2023-05-21T22:56:52.380Z,6.30
2023-05-21T22:59:19.424Z,5.82
2023-05-21T23:01:46.578Z,6.55
2023-05-21T23:04:15.214Z,6.60
2023-05-21T23:06:42.818Z,6.88
2023-05-21T23:09:10.036Z,6.57
2023-05-21T23:11:37.177Z,6.95
2023-05-21T23:14:04.323Z,7.68
2023-05-21T23:16:32.285Z,6.50
2023-05-21T23:18:59.470Z,6.03
2023-05-21T23:21:26.685Z,6.50
2023-05-21T23:23:53.730Z,6.70
2023-05-21T23:26:21.735Z,6.32
2023-05-21T23:28:48.776Z,6.72
2023-05-21T23:31:15.905Z,6.35
2023-05-21T23:33:42.972Z,6.47
2023-05-21T23:36:10.057Z,6.18
2023-05-21T23:38:37.083Z,6.05
2023-05-21T23:41:04.133Z,5.30
2023-05-21T23:43:31.214Z,6.05
2023-05-21T23:45:58.305Z,5.95
2023-05-21T23:48:25.584Z,5.65
2023-05-21T23:50:52.819Z,6.07
2023-05-21T23:53:19.894Z,5.95
2023-05-21T23:55:47.427Z,5.80
2023-05-21T23:58:14.502Z,5.95
